Airport View

Enter AWOS ICAO identifier for current METAR.

ex. KFNL

KRWL 202353Z AUTO 28020G30KT 10SM OVC100 17/M04 A2992 RMK AO2 PK WND 23037/2334 RAE2255B16E20B36E45 SLP058 P0000 60000 T01671039 10233 20167 53006

21 Sep 2019 00:56

Frequency: 118.525

Phone: 307-328-0031

Other Area AWOS: KSAA - KEHY - KDWX - KCPR

TAF KRWL 202323Z 2100/2124 24018G26KT P6SM VCSH FEW150 FM210600 24020G28KT P6SM SKC FM211800 26015G22KT P6SM SCT150